createdAt,value
2022-11-24T00:02:28.152Z,32
2022-11-24T00:04:58.713Z,36
2022-11-24T00:07:29.684Z,39
2022-11-24T00:10:00.132Z,40
2022-11-24T00:12:31.016Z,44
2022-11-24T00:15:02.260Z,40
2022-11-24T00:17:34.000Z,39
2022-11-24T00:20:05.760Z,40
2022-11-24T00:22:44.743Z,36
2022-11-24T00:25:15.964Z,35
2022-11-24T00:27:46.634Z,40
2022-11-24T00:30:17.927Z,36
2022-11-24T00:32:49.552Z,40
2022-11-24T00:35:20.217Z,32
2022-11-24T00:37:52.617Z,36
2022-11-24T00:40:23.118Z,40
2022-11-24T00:42:53.458Z,33
2022-11-24T00:45:23.551Z,30
2022-11-24T00:47:54.228Z,36
2022-11-24T00:50:28.007Z,36
2022-11-24T00:53:00.487Z,32
2022-11-24T00:55:31.311Z,36
2022-11-24T00:58:02.253Z,32
2022-11-24T01:00:34.553Z,36
2022-11-24T01:03:05.690Z,34
2022-11-24T01:05:36.506Z,33
2022-11-24T01:08:07.585Z,33
2022-11-24T01:10:38.545Z,40
2022-11-24T01:13:10.014Z,36
2022-11-24T01:15:41.518Z,36
2022-11-24T01:18:12.283Z,28
2022-11-24T01:20:43.019Z,32
2022-11-24T01:23:13.911Z,32
2022-11-24T01:25:47.544Z,32
2022-11-24T01:28:18.328Z,36
2022-11-24T01:30:49.133Z,38
2022-11-24T01:33:20.229Z,33
2022-11-24T01:35:50.622Z,36
2022-11-24T01:38:21.306Z,34
2022-11-24T01:40:51.723Z,35
2022-11-24T01:43:22.456Z,36
2022-11-24T01:45:57.987Z,28
2022-11-24T01:48:31.587Z,32
2022-11-24T01:51:03.740Z,33
2022-11-24T01:53:34.667Z,32
2022-11-24T01:56:04.942Z,32
2022-11-24T01:58:35.352Z,35
2022-11-24T02:01:09.119Z,36
2022-11-24T02:03:40.119Z,40
2022-11-24T02:06:11.115Z,24
2022-11-24T02:08:42.785Z,36
2022-11-24T02:11:13.685Z,32
2022-11-24T02:13:44.317Z,36
2022-11-24T02:16:16.224Z,36
2022-11-24T02:18:46.994Z,29
2022-11-24T02:21:17.912Z,37
2022-11-24T02:23:47.691Z,36
2022-11-24T02:26:18.423Z,36
2022-11-24T02:28:49.640Z,36
2022-11-24T02:31:20.902Z,39
2022-11-24T02:33:53.146Z,36
2022-11-24T02:36:23.979Z,31
2022-11-24T02:38:58.803Z,36
2022-11-24T02:41:30.347Z,35
2022-11-24T02:44:01.807Z,36
2022-11-24T02:46:32.889Z,37
2022-11-24T02:49:03.647Z,37
2022-11-24T02:51:36.194Z,37
2022-11-24T02:54:07.348Z,38
2022-11-24T02:56:40.132Z,30
2022-11-24T02:59:12.940Z,32
2022-11-24T03:01:44.378Z,36
2022-11-24T03:04:15.085Z,36
2022-11-24T03:06:46.108Z,32
2022-11-24T03:09:17.410Z,32
2022-11-24T03:11:50.177Z,40
2022-11-24T03:14:21.601Z,35
2022-11-24T03:16:53.072Z,28
2022-11-24T03:19:25.084Z,41
2022-11-24T03:21:56.298Z,37
2022-11-24T03:24:27.125Z,36
2022-11-24T03:26:58.028Z,37
2022-11-24T03:29:29.006Z,38
2022-11-24T03:32:00.140Z,36
2022-11-24T03:34:31.426Z,36
2022-11-24T03:37:02.878Z,32
2022-11-24T03:39:33.864Z,34
2022-11-24T03:42:08.429Z,40
2022-11-24T03:44:39.202Z,39
2022-11-24T03:47:10.692Z,36
2022-11-24T03:49:42.086Z,39
2022-11-24T03:52:13.330Z,42
2022-11-24T03:54:44.370Z,40
2022-11-24T03:57:15.558Z,36
2022-11-24T03:59:49.566Z,40
2022-11-24T04:02:19.340Z,42
2022-11-24T04:04:50.356Z,40
2022-11-24T04:07:21.067Z,36
2022-11-24T04:09:51.882Z,40
2022-11-24T04:12:22.256Z,36
2022-11-24T04:14:52.801Z,36
2022-11-24T04:17:28.281Z,40
2022-11-24T04:19:59.321Z,42
2022-11-24T04:22:30.321Z,37
2022-11-24T04:25:01.487Z,39
2022-11-24T04:27:35.825Z,41
2022-11-24T04:30:06.626Z,36
2022-11-24T04:32:43.581Z,42
2022-11-24T04:35:16.333Z,40
2022-11-24T04:37:47.067Z,36
2022-11-24T04:40:18.108Z,39
2022-11-24T04:42:48.871Z,38
2022-11-24T04:45:25.387Z,38
2022-11-24T04:47:58.318Z,31
2022-11-24T04:50:29.089Z,36
2022-11-24T04:53:00.563Z,33
2022-11-24T04:55:31.890Z,36
2022-11-24T04:58:03.177Z,33
2022-11-24T05:00:33.581Z,42
2022-11-24T05:03:04.260Z,36
2022-11-24T05:05:34.864Z,40
2022-11-24T05:08:06.042Z,39
2022-11-24T05:10:37.069Z,40
2022-11-24T05:13:08.282Z,36
2022-11-24T05:15:42.305Z,40
2022-11-24T05:18:12.957Z,39
2022-11-24T05:20:43.683Z,28
2022-11-24T05:23:15.029Z,39
2022-11-24T05:25:47.725Z,36
2022-11-24T05:28:16.560Z,40
2022-11-24T05:30:47.921Z,36
2022-11-24T05:33:18.998Z,43
2022-11-24T05:35:50.573Z,39
2022-11-24T05:38:21.617Z,42
2022-11-24T05:40:52.260Z,41
2022-11-24T05:43:23.286Z,44
2022-11-24T05:45:54.229Z,44
2022-11-24T05:48:28.523Z,41
2022-11-24T05:51:00.019Z,40
2022-11-24T05:53:31.480Z,42
2022-11-24T05:56:02.710Z,44
2022-11-24T05:58:33.809Z,48
2022-11-24T06:01:04.264Z,44
2022-11-24T06:03:35.005Z,45
2022-11-24T06:06:05.581Z,48
2022-11-24T06:08:36.691Z,44
2022-11-24T06:11:06.975Z,44
2022-11-24T06:13:37.848Z,40
2022-11-24T06:16:08.452Z,40
2022-11-24T06:18:39.204Z,40
2022-11-24T06:21:11.431Z,36
2022-11-24T06:23:41.157Z,43
2022-11-24T06:26:10.027Z,35
2022-11-24T06:28:40.961Z,36
2022-11-24T06:31:10.948Z,36
2022-11-24T06:33:41.524Z,36
2022-11-24T06:36:12.126Z,35
2022-11-24T06:38:43.257Z,36
2022-11-24T06:41:14.522Z,40
2022-11-24T06:43:45.100Z,45
2022-11-24T06:46:15.641Z,40
2022-11-24T06:48:46.379Z,40
2022-11-24T06:51:17.074Z,40
2022-11-24T06:53:47.736Z,38
2022-11-24T06:56:18.855Z,29
2022-11-24T06:58:52.410Z,29
2022-11-24T07:01:23.407Z,33
2022-11-24T07:03:56.203Z,36
2022-11-24T07:06:28.384Z,31
2022-11-24T07:09:00.884Z,28
2022-11-24T07:11:31.856Z,36
2022-11-24T07:14:02.484Z,37
2022-11-24T07:16:37.373Z,36
2022-11-24T07:19:08.569Z,32
2022-11-24T07:21:38.963Z,27
2022-11-24T07:24:12.314Z,36
2022-11-24T07:26:46.788Z,24
2022-11-24T07:29:17.071Z,28
2022-11-24T07:31:48.256Z,28
2022-11-24T07:34:18.953Z,33
2022-11-24T07:36:52.491Z,24
2022-11-24T07:39:23.727Z,32
2022-11-24T07:41:54.926Z,31
2022-11-24T07:44:25.748Z,26
2022-11-24T07:46:56.091Z,36
2022-11-24T07:49:26.459Z,36
2022-11-24T07:51:57.435Z,31
2022-11-24T07:54:28.122Z,36
2022-11-24T07:57:01.231Z,26
2022-11-24T07:59:32.113Z,35
2022-11-24T08:02:02.583Z,35
2022-11-24T08:04:33.417Z,24
2022-11-24T08:07:05.507Z,28
2022-11-24T08:09:36.206Z,20
2022-11-24T08:12:06.908Z,29
2022-11-24T08:14:38.491Z,20
2022-11-24T08:17:09.482Z,25
2022-11-24T08:19:41.951Z,24
2022-11-24T08:22:13.082Z,24
2022-11-24T08:24:44.837Z,20
2022-11-24T08:27:15.840Z,24
2022-11-24T08:29:46.636Z,25
2022-11-24T08:32:21.871Z,20
2022-11-24T08:34:47.392Z,24
2022-11-24T08:37:18.016Z,23
2022-11-24T08:39:49.093Z,24
2022-11-24T08:42:19.809Z,23
2022-11-24T08:44:58.783Z,20
2022-11-24T08:47:24.085Z,26
2022-11-24T08:49:55.002Z,20
2022-11-24T08:52:26.087Z,18
2022-11-24T08:54:56.701Z,20
2022-11-24T08:57:27.900Z,20
2022-11-24T08:59:59.223Z,20
2022-11-24T09:02:29.850Z,20
2022-11-24T09:05:00.837Z,27
2022-11-24T09:07:36.351Z,20
2022-11-24T09:10:07.625Z,22
2022-11-24T09:12:38.767Z,22
2022-11-24T09:15:09.294Z,20
2022-11-24T09:17:41.055Z,28
2022-11-24T09:20:11.060Z,20
2022-11-24T09:22:42.014Z,25
2022-11-24T09:25:13.455Z,21
2022-11-24T09:27:47.720Z,19
2022-11-24T09:30:18.352Z,19
2022-11-24T09:32:49.490Z,25
2022-11-24T09:35:21.087Z,17
2022-11-24T09:37:51.495Z,16
2022-11-24T09:40:21.769Z,19
2022-11-24T09:42:53.767Z,24
2022-11-24T09:45:41.928Z,24
2022-11-24T09:47:53.350Z,16
2022-11-24T09:50:23.594Z,21
2022-11-24T09:52:54.566Z,23
2022-11-24T09:55:25.501Z,20
2022-11-24T09:57:59.051Z,24
2022-11-24T10:00:30.990Z,18
2022-11-24T10:03:05.502Z,20
2022-11-24T10:05:35.938Z,16
2022-11-24T10:08:06.741Z,18
2022-11-24T10:10:37.347Z,16
2022-11-24T10:13:07.563Z,16
2022-11-24T10:15:40.713Z,23
2022-11-24T10:18:16.362Z,23
2022-11-24T10:20:46.429Z,16
2022-11-24T10:23:26.287Z,23
2022-11-24T10:25:57.472Z,18
2022-11-24T10:28:28.413Z,21
2022-11-24T10:30:59.445Z,24
2022-11-24T10:33:31.103Z,22
2022-11-24T10:36:03.431Z,30
2022-11-24T10:38:34.036Z,24
2022-11-24T10:41:04.255Z,23
2022-11-24T10:43:35.164Z,25
2022-11-24T10:46:10.254Z,22
2022-11-24T10:48:43.369Z,20
2022-11-24T10:51:14.373Z,24
2022-11-24T10:53:48.973Z,24
2022-11-24T10:56:20.934Z,25
2022-11-24T10:58:51.355Z,27
2022-11-24T11:01:22.654Z,23
2022-11-24T11:03:52.909Z,40
2022-11-24T11:06:23.153Z,71
2022-11-24T11:08:53.418Z,44
2022-11-24T11:11:23.964Z,38
2022-11-24T11:13:58.438Z,28
2022-11-24T11:16:25.110Z,28
2022-11-24T11:19:15.916Z,24
2022-11-24T11:21:37.026Z,28
2022-11-24T11:24:07.330Z,30
2022-11-24T11:26:38.334Z,52
2022-11-24T11:34:02.626Z,43
2022-11-24T11:34:22.046Z,36
2022-11-24T11:36:46.575Z,32
2022-11-24T11:39:21.134Z,32
2022-11-24T11:41:51.844Z,24
2022-11-24T11:44:22.274Z,25
2022-11-24T11:46:53.001Z,24
2022-11-24T11:49:23.674Z,25
2022-11-24T11:51:54.111Z,25
2022-11-24T11:54:24.352Z,26
2022-11-24T11:56:58.566Z,24
2022-11-24T11:59:29.522Z,28
2022-11-24T12:02:02.208Z,27
2022-11-24T12:04:32.569Z,20
2022-11-24T12:07:04.119Z,20
2022-11-24T12:09:34.597Z,20
2022-11-24T12:12:04.557Z,38
2022-11-24T12:14:37.565Z,20
2022-11-24T12:17:05.965Z,21
2022-11-24T12:19:37.062Z,20
2022-11-24T12:22:07.380Z,17
2022-11-24T12:24:38.707Z,16
2022-11-24T12:27:09.158Z,16
2022-11-24T12:29:40.861Z,19
2022-11-24T12:32:12.784Z,17
2022-11-24T12:34:44.227Z,23
2022-11-24T12:37:15.028Z,20
2022-11-24T12:39:45.539Z,20
2022-11-24T12:42:18.510Z,37
2022-11-24T12:44:49.140Z,21
2022-11-24T12:47:19.536Z,20
2022-11-24T12:49:49.760Z,18
2022-11-24T12:52:20.331Z,22
2022-11-24T12:54:50.988Z,25
2022-11-24T12:57:29.607Z,20
2022-11-24T13:00:00.303Z,34
2022-11-24T13:02:31.235Z,37
2022-11-24T13:05:01.759Z,37
2022-11-24T13:07:32.350Z,51
2022-11-24T13:10:03.434Z,37
2022-11-24T13:12:34.121Z,58
2022-11-24T13:15:05.561Z,64
2022-11-24T13:17:58.352Z,58
2022-11-24T13:20:08.369Z,57
2022-11-24T13:22:39.162Z,60
2022-11-24T13:25:09.372Z,58
2022-11-24T13:27:40.420Z,56
2022-11-24T13:30:11.175Z,58
2022-11-24T13:32:41.785Z,60
2022-11-24T13:35:13.548Z,61
2022-11-24T13:37:45.583Z,64
2022-11-24T13:40:16.842Z,71
2022-11-24T13:42:47.338Z,68
2022-11-24T13:45:17.809Z,73
2022-11-24T13:47:48.781Z,62
2022-11-24T13:50:21.515Z,53
2022-11-24T13:52:51.430Z,52
2022-11-24T13:55:22.264Z,50
2022-11-24T13:57:54.468Z,52
2022-11-24T14:00:25.645Z,48
2022-11-24T14:02:56.531Z,48
2022-11-24T14:05:28.298Z,52
2022-11-24T14:07:59.481Z,52
2022-11-24T14:10:30.758Z,55
2022-11-24T14:13:00.423Z,60
2022-11-24T14:15:35.729Z,64
2022-11-24T14:18:08.810Z,56
2022-11-24T14:20:39.478Z,64
2022-11-24T14:23:10.556Z,60
2022-11-24T14:25:42.280Z,57
2022-11-24T14:28:16.597Z,64
2022-11-24T14:30:47.505Z,68
2022-11-24T14:33:27.444Z,56
2022-11-24T14:35:58.588Z,58
2022-11-24T14:38:29.554Z,40
2022-11-24T14:41:00.331Z,39
2022-11-24T14:43:33.344Z,36
2022-11-24T14:46:04.603Z,47
2022-11-24T14:48:35.613Z,52
2022-11-24T14:51:08.973Z,36
2022-11-24T14:53:39.430Z,40
2022-11-24T14:56:10.725Z,44
2022-11-24T14:58:44.762Z,40
2022-11-24T15:01:16.529Z,45
2022-11-24T15:03:48.030Z,44
2022-11-24T15:06:19.163Z,38
2022-11-24T15:08:50.941Z,40
2022-11-24T15:11:23.009Z,28
2022-11-24T15:13:55.569Z,31
2022-11-24T15:16:26.854Z,28
2022-11-24T15:18:58.373Z,32
2022-11-24T15:21:30.405Z,30
2022-11-24T15:24:01.588Z,36
2022-11-24T15:26:40.170Z,39
2022-11-24T15:29:05.134Z,37
2022-11-24T15:31:40.399Z,36
2022-11-24T15:34:16.588Z,36
2022-11-24T15:36:47.506Z,37
2022-11-24T15:39:20.252Z,39
2022-11-24T15:41:51.905Z,39
2022-11-24T15:44:23.174Z,42
2022-11-24T15:46:55.481Z,36
2022-11-24T15:49:26.376Z,40
2022-11-24T15:51:57.895Z,41
2022-11-24T15:54:32.426Z,44
2022-11-24T15:57:06.921Z,50
2022-11-24T15:59:38.022Z,47
2022-11-24T16:02:11.998Z,48
2022-11-24T16:04:44.501Z,52
2022-11-24T16:07:15.707Z,55
2022-11-24T16:09:48.636Z,54
2022-11-24T16:12:21.097Z,60
2022-11-24T16:14:54.658Z,60
2022-11-24T16:17:27.626Z,66
2022-11-24T16:20:00.641Z,64
2022-11-24T16:22:30.423Z,58
2022-11-24T16:25:01.254Z,60
2022-11-24T16:27:34.686Z,75
2022-11-24T16:30:06.069Z,83
2022-11-24T16:32:39.714Z,76
2022-11-24T16:35:11.681Z,79
2022-11-24T16:37:44.525Z,75
2022-11-24T16:40:15.773Z,80
2022-11-24T16:42:50.375Z,60
2022-11-24T16:45:21.445Z,64
2022-11-24T16:47:52.290Z,59
2022-11-24T16:50:25.646Z,60
2022-11-24T16:52:58.444Z,56
2022-11-24T16:55:29.627Z,64
2022-11-24T16:58:00.768Z,80
2022-11-24T17:00:31.884Z,68
2022-11-24T17:03:03.107Z,98
2022-11-24T17:05:36.834Z,95
2022-11-24T17:08:10.692Z,87
2022-11-24T17:10:42.106Z,87
2022-11-24T17:13:15.655Z,92
2022-11-24T17:15:51.091Z,98
2022-11-24T17:18:25.350Z,80
2022-11-24T17:20:56.700Z,76
2022-11-24T17:23:28.420Z,70
2022-11-24T17:25:59.303Z,52
2022-11-24T17:28:32.764Z,52
2022-11-24T17:31:04.089Z,40
2022-11-24T17:33:37.901Z,36
2022-11-24T17:36:09.296Z,40
2022-11-24T17:38:40.435Z,36
2022-11-24T17:41:11.600Z,41
2022-11-24T17:43:45.525Z,34
2022-11-24T17:46:17.066Z,38
2022-11-24T17:48:49.124Z,33
2022-11-24T17:51:20.003Z,32
2022-11-24T17:53:50.985Z,36
2022-11-24T17:56:22.526Z,39
2022-11-24T17:58:53.943Z,39
2022-11-24T18:01:26.921Z,36
2022-11-24T18:03:59.153Z,35
2022-11-24T18:06:30.400Z,32
2022-11-24T18:09:06.013Z,39
2022-11-24T18:11:46.099Z,36
2022-11-24T18:14:17.370Z,40
2022-11-24T18:16:49.497Z,36
2022-11-24T18:19:20.783Z,35
2022-11-24T18:21:52.262Z,39
2022-11-24T18:24:24.306Z,36
2022-11-24T18:26:59.321Z,36
2022-11-24T18:29:30.223Z,28
2022-11-24T18:32:04.427Z,33
2022-11-24T18:34:37.273Z,32
2022-11-24T18:37:08.247Z,34
2022-11-24T18:39:44.249Z,32
2022-11-24T18:42:20.633Z,29
2022-11-24T18:44:54.244Z,32
2022-11-24T18:47:24.562Z,31
2022-11-24T18:49:55.821Z,40
2022-11-24T18:52:29.320Z,32
2022-11-24T18:55:01.512Z,29
2022-11-24T18:57:32.703Z,44
2022-11-24T19:00:04.226Z,40
2022-11-24T19:02:37.951Z,40
2022-11-24T19:05:09.278Z,36
2022-11-24T19:07:40.945Z,36
2022-11-24T19:10:12.225Z,38
2022-11-24T19:12:44.264Z,32
2022-11-24T19:15:15.447Z,36
2022-11-24T19:17:47.464Z,36
2022-11-24T19:20:16.481Z,43
2022-11-24T19:22:47.285Z,36
2022-11-24T19:25:17.790Z,36
2022-11-24T19:27:48.874Z,41
2022-11-24T19:30:21.961Z,36
2022-11-24T19:32:53.028Z,38
2022-11-24T19:35:24.161Z,36
2022-11-24T19:38:03.442Z,36
2022-11-24T19:40:34.122Z,37
2022-11-24T19:43:05.052Z,44
2022-11-24T19:45:36.425Z,44
2022-11-24T19:48:07.736Z,40
2022-11-24T19:50:43.084Z,33
2022-11-24T19:53:15.167Z,36
2022-11-24T19:55:55.276Z,40
2022-11-24T19:58:26.323Z,43
2022-11-24T20:01:00.942Z,45
2022-11-24T20:03:32.296Z,44
2022-11-24T20:06:03.810Z,44
2022-11-24T20:08:35.086Z,40
2022-11-24T20:11:08.121Z,44
2022-11-24T20:13:39.046Z,51
2022-11-24T20:16:10.381Z,48
2022-11-24T20:18:42.088Z,56
2022-11-24T20:21:13.256Z,52
2022-11-24T20:23:44.252Z,52
2022-11-24T20:26:16.423Z,52
2022-11-24T20:28:51.163Z,51
2022-11-24T20:31:22.152Z,45
2022-11-24T20:33:53.839Z,44
2022-11-24T20:36:26.271Z,40
2022-11-24T20:38:58.941Z,41
2022-11-24T20:41:30.383Z,51
2022-11-24T20:44:01.798Z,42
2022-11-24T20:46:33.015Z,41
2022-11-24T20:49:03.988Z,37
2022-11-24T20:51:35.192Z,40
2022-11-24T20:54:07.343Z,40
2022-11-24T20:56:39.132Z,36
2022-11-24T20:59:10.457Z,39
2022-11-24T21:01:42.088Z,44
2022-11-24T21:04:14.574Z,40
2022-11-24T21:06:45.636Z,44
2022-11-24T21:09:16.569Z,44
2022-11-24T21:11:47.830Z,41
2022-11-24T21:14:19.225Z,44
2022-11-24T21:16:50.375Z,48
2022-11-24T21:19:21.679Z,40
2022-11-24T21:21:54.127Z,40
2022-11-24T21:24:25.462Z,45
2022-11-24T21:26:56.528Z,52
2022-11-24T21:29:28.266Z,48
2022-11-24T21:32:00.247Z,48
2022-11-24T21:34:32.594Z,47
2022-11-24T21:37:04.028Z,46
2022-11-24T21:39:35.667Z,51
2022-11-24T21:42:07.028Z,55
2022-11-24T21:44:38.383Z,52
2022-11-24T21:47:09.502Z,54
2022-11-24T21:49:41.047Z,44
2022-11-24T21:52:13.311Z,48
2022-11-24T21:54:44.748Z,47
2022-11-24T21:57:16.083Z,44
2022-11-24T21:59:47.195Z,44
2022-11-24T22:02:18.357Z,47
2022-11-24T22:04:50.984Z,43
2022-11-24T22:07:22.593Z,40
2022-11-24T22:09:53.801Z,41
2022-11-24T22:12:24.823Z,36
2022-11-24T22:14:56.105Z,36
2022-11-24T22:17:27.305Z,40
2022-11-24T22:20:03.529Z,36
2022-11-24T22:22:34.835Z,36
2022-11-24T22:25:05.968Z,40
2022-11-24T22:27:37.053Z,40
2022-11-24T22:30:08.156Z,44
2022-11-24T22:32:39.700Z,46
2022-11-24T22:35:11.361Z,40
2022-11-24T22:37:43.261Z,37
2022-11-24T22:40:14.627Z,36
2022-11-24T22:42:46.255Z,40
2022-11-24T22:45:17.477Z,43
2022-11-24T22:47:49.148Z,36
2022-11-24T22:50:19.711Z,44
2022-11-24T22:52:51.166Z,40
2022-11-24T22:55:22.013Z,40
2022-11-24T22:57:56.797Z,39
2022-11-24T23:00:24.168Z,37
2022-11-24T23:02:55.356Z,40
2022-11-24T23:05:26.508Z,36
2022-11-24T23:07:58.085Z,41
2022-11-24T23:10:29.549Z,43
2022-11-24T23:13:00.045Z,40
2022-11-24T23:15:31.472Z,40
2022-11-24T23:18:02.268Z,41
2022-11-24T23:20:32.721Z,39
2022-11-24T23:23:03.208Z,36
2022-11-24T23:25:34.052Z,36
2022-11-24T23:28:05.364Z,44
2022-11-24T23:30:36.407Z,39
2022-11-24T23:33:07.016Z,40
2022-11-24T23:35:37.484Z,40
2022-11-24T23:38:08.248Z,40
2022-11-24T23:40:38.725Z,40
2022-11-24T23:43:09.848Z,36
2022-11-24T23:45:41.020Z,32
2022-11-24T23:48:13.084Z,41
2022-11-24T23:50:43.784Z,39
2022-11-24T23:53:15.164Z,40
2022-11-24T23:55:43.993Z,40
2022-11-24T23:58:15.176Z,35
